Wednesday, June 20, 2018, 3:39 AM EDT

KSBY, Salisbury-wicomico Cty Reg

Location: Salisbury, MD, United States Lat: 38.333
Local Time: 3:39 AM EDT ( 7:39 GMT) Lon: -75.5
Time Zone: US/Eastern Elev: 52 ft

Show me the last for .
Show Decoded

2018-06-20 02:54 METAR KSBY 200654Z AUTO 32003KT 3SM BR BKN046 23/23 A2984 RMK AO2 SLP104
                 T02280228 =
2018-06-20 01:54 METAR KSBY 200554Z AUTO 00000KT 5SM BR SCT044 SCT050 23/23 A2984 RMK AO2 SLP105
                 T02330233 10250 20233 58004 =
2018-06-20 00:54 METAR KSBY 200454Z AUTO 00000KT 5SM BR BKN043 24/24 A2985 RMK AO2 SLP107
                 T02390239 403390239 =
2018-06-19 23:54 METAR KSBY 200354Z AUTO 00000KT 4SM BR BKN039 BKN048 24/24 A2984 RMK AO2 SLP107
                 T02390239 =
2018-06-19 22:54 METAR KSBY 200254Z AUTO 00000KT 7SM BKN035 BKN046 BKN065 24/24 A2985 RMK AO2
                 SLP109 T02440244 51005 =
2018-06-19 21:54 METAR KSBY 200154Z 00000KT 6SM BR BKN031 24/24 A2985 RMK AO2 SLP108 T02440244 =
2018-06-19 21:12 METAR KSBY 200112Z 12003KT 10SM OVC030 25/24 A2984 RMK AO2 T02500244 =
2018-06-19 20:54 METAR KSBY 200054Z 00000KT 9SM BKN028 25/25 A2984 RMK AO2 SLP104 T02500250 =
2018-06-19 19:54 METAR KSBY 192354Z 00000KT 10SM OVC027 25/24 A2983 RMK AO2 RAE18 SLP105 P0006
                 60014 T02500244 10333 20250 53018 =
2018-06-19 19:20 METAR KSBY 192320Z VRB03KT 8SM BKN025 OVC031 26/24 A2982 RMK AO2 LTG DSNT S
                 RAE18 P0006 T02560244 =
2018-06-19 19:13 METAR KSBY 192313Z 22004KT 3SM -RA BR SCT025 OVC031 25/25 A2982 RMK AO2 LTG DSNT
                 S P0006 T02500250 =
2018-06-19 19:06 METAR KSBY 192306Z 19007KT 1 3/4SM +RA BR SCT030 BKN034 OVC041 26/24 A2982 RMK
                 AO2 LTG DSNT S P0006 T02560244 =
2018-06-19 18:54 METAR KSBY 192254Z 18007KT 4SM -RA BR BKN033 BKN044 OVC110 26/25 A2981 RMK AO2
                 LTG DSNT S RAB18 SLP097 P0004 T02560250 =
2018-06-19 18:32 METAR KSBY 192232Z 14007KT 9SM -RA SCT029 BKN040 OVC110 26/25 A2980 RMK AO2
                 RAB18 P0001 T02610250 =
2018-06-19 18:10 METAR KSBY 192210Z 17005KT 7SM BKN028 OVC034 27/25 A2981 RMK AO2 T02720250 =
2018-06-19 17:54 METAR KSBY 192154Z 16006KT 10SM BKN031 BKN038 OVC060 28/24 A2980 RMK AO2 LTG
                 DSNT SE SLP094 T02780244 =
2018-06-19 16:54 METAR KSBY 192054Z 35006KT 10SM FEW060 BKN090 31/23 A2978 RMK AO2 LTG DSNT SE-SW
                 SLP086 60004 T03110233 56005 =
2018-06-19 16:39 METAR KSBY 192039Z 36005KT 10SM FEW060 FEW075 BKN090 31/23 A2979 RMK AO2 LTG
                 DSNT S AND SW T03110233 =
2018-06-19 16:24 METAR KSBY 192024Z 35008KT 10SM VCTS FEW075 SCT095 31/23 A2979 RMK AO2 LTG DSNT
                 S-W T03110233 =
2018-06-19 15:54 METAR KSBY 191954Z 02006KT 10SM SCT055 SCT070 32/24 A2978 RMK AO2 LTG DSNT SW
                 AND W SLP087 T03170239 =
2018-06-19 14:54 METAR KSBY 191854Z 00000KT 10SM BKN055 31/24 A2979 RMK AO2 RAB09E30 SLP090 P0004
                 T03110244 =
2018-06-19 13:54 METAR KSBY 191754Z 36009KT 10SM BKN043 BKN055 BKN075 33/24 A2980 RMK AO2 SLP091
                 T03280239 10339 20278 58008 =
2018-06-19 12:54 METAR KSBY 191654Z 34011KT 10SM BKN044 BKN060 32/23 A2981 RMK AO2 SLP097
                 T03220228 =
2018-06-19 11:54 METAR KSBY 191554Z 33010KT 10SM SCT039 33/23 A2982 RMK AO2 SLP098 T03280233 =
2018-06-19 10:54 METAR KSBY 191454Z 28006KT 10SM CLR 31/23 A2982 RMK AO2 SLP099 T03110233 58006 =
2018-06-19 09:54 METAR KSBY 191354Z 29009KT 10SM CLR 30/23 A2983 RMK AO2 SLP103 T03000228 =
2018-06-19 08:54 METAR KSBY 191254Z 28008KT 10SM CLR 29/23 A2984 RMK AO2 SLP105 T02940233 =
2018-06-19 07:54 METAR KSBY 191154Z 28008KT 9SM CLR 28/24 A2984 RMK AO2 SLP105 T02780239 10278
                 20244 50004 =
2018-06-19 06:54 METAR KSBY 191054Z 25007KT 6SM BR CLR 26/24 A2984 RMK AO2 SLP106 T02610239 =
2018-06-19 05:54 METAR KSBY 190954Z 24006KT 6SM BR CLR 25/24 A2984 RMK AO2 SLP104 T02500239 =
2018-06-19 04:54 METAR KSBY 190854Z AUTO 25006KT 7SM CLR 25/24 A2983 RMK AO2 SLP101 T02500239
                 56016 =
2018-06-19 03:54 METAR KSBY 190754Z AUTO 23005KT 7SM CLR 25/24 A2983 RMK AO2 SLP102 T02500239 =

Support USWX by starting your Amazon purchase here.